createdAt,value
2023-04-16T00:00:03.914Z,27.20
2023-04-16T00:02:40.057Z,24.92
2023-04-16T00:05:08.435Z,28.25
2023-04-16T00:07:36.121Z,26.30
2023-04-16T00:10:03.721Z,29.48
2023-04-16T00:12:31.407Z,27.75
2023-04-16T00:14:59.028Z,24.50
2023-04-16T00:17:26.691Z,29.42
2023-04-16T00:19:55.668Z,28.42
2023-04-16T00:22:23.253Z,29.35
2023-04-16T00:24:51.942Z,27.17
2023-04-16T00:27:20.564Z,28.60
2023-04-16T00:29:48.598Z,31.27
2023-04-16T00:32:16.335Z,30.33
2023-04-16T00:34:43.952Z,29.52
2023-04-16T00:37:12.932Z,29.48
2023-04-16T00:39:40.634Z,28.30
2023-04-16T00:42:08.231Z,26.92
2023-04-16T00:44:36.051Z,28.90
2023-04-16T00:47:04.188Z,26.30
2023-04-16T00:49:32.204Z,29.30
2023-04-16T00:52:02.422Z,26.67
2023-04-16T00:54:32.240Z,26.40
2023-04-16T00:57:00.166Z,28.10
2023-04-16T00:59:28.040Z,25.90
2023-04-16T01:01:55.814Z,26.73
2023-04-16T01:04:23.749Z,29.02
2023-04-16T01:06:52.012Z,26.83
2023-04-16T01:09:19.621Z,26.02
2023-04-16T01:11:48.582Z,29.45
2023-04-16T01:14:16.217Z,28.55
2023-04-16T01:16:43.918Z,27.58
2023-04-16T01:19:12.081Z,27.13
2023-04-16T01:21:41.131Z,30.20
2023-04-16T01:24:08.842Z,29.50
2023-04-16T01:26:36.450Z,30.75
2023-04-16T01:29:04.068Z,31.67
2023-04-16T01:31:31.941Z,32.08
2023-04-16T01:34:05.166Z,30.58
2023-04-16T01:36:33.445Z,30.70
2023-04-16T01:39:02.649Z,32.03
2023-04-16T01:41:31.779Z,35.47
2023-04-16T01:43:59.370Z,32.58
2023-04-16T01:46:29.739Z,33.47
2023-04-16T01:48:57.769Z,35.40
2023-04-16T01:51:25.385Z,32.15
2023-04-16T01:53:52.988Z,34.92
2023-04-16T01:56:21.946Z,33.80
2023-04-16T01:58:49.557Z,33.28
2023-04-16T02:01:19.063Z,32.38
2023-04-16T02:03:48.196Z,34.78
2023-04-16T02:06:16.502Z,34.63
2023-04-16T02:08:44.161Z,34.80
2023-04-16T02:11:11.758Z,35.42
2023-04-16T02:13:41.253Z,33.33
2023-04-16T02:16:09.028Z,33.13
2023-04-16T02:18:56.962Z,35.55
2023-04-16T02:21:25.830Z,37.80
2023-04-16T02:23:53.581Z,36.25
2023-04-16T02:26:29.082Z,37.70
2023-04-16T02:29:01.809Z,37.63
2023-04-16T02:31:37.507Z,35.97
2023-04-16T02:34:06.196Z,34.28
2023-04-16T02:36:33.790Z,35.72
2023-04-16T02:39:01.490Z,35.80
2023-04-16T02:41:29.132Z,35.45
2023-04-16T02:43:57.137Z,35.53
2023-04-16T02:46:26.218Z,33.40
2023-04-16T02:48:53.895Z,31.20
2023-04-16T02:51:21.446Z,29.70
2023-04-16T02:53:49.041Z,30.02
2023-04-16T02:56:16.669Z,27.33
2023-04-16T02:58:44.283Z,30.38
2023-04-16T03:01:11.913Z,26.85
2023-04-16T03:03:41.406Z,26.75
2023-04-16T03:06:09.018Z,29.60
2023-04-16T03:08:36.693Z,28.20
2023-04-16T03:11:04.309Z,26.40
2023-04-16T03:13:31.959Z,27.45
2023-04-16T03:15:59.650Z,29.73
2023-04-16T03:18:27.306Z,28.83
2023-04-16T03:20:56.290Z,28.33
2023-04-16T03:23:23.852Z,28.67
2023-04-16T03:25:51.516Z,32.78
2023-04-16T03:28:19.696Z,29.67
2023-04-16T03:30:51.740Z,34.08
2023-04-16T03:33:19.720Z,29.42
2023-04-16T03:35:47.338Z,32.55
2023-04-16T03:38:16.806Z,33.20
2023-04-16T03:40:44.380Z,35.08
2023-04-16T03:43:12.050Z,31.58
2023-04-16T03:45:45.038Z,31.70
2023-04-16T03:48:13.480Z,34.45
2023-04-16T03:50:41.279Z,31.52
2023-04-16T03:53:10.535Z,31.33
2023-04-16T03:55:41.353Z,31.10
2023-04-16T03:58:10.033Z,29.83
2023-04-16T04:00:37.790Z,31.48
2023-04-16T04:03:12.061Z,30.30
2023-04-16T04:05:41.217Z,30.63
2023-04-16T04:08:11.905Z,32.47
2023-04-16T04:10:41.023Z,34.83
2023-04-16T04:13:10.991Z,31.10
2023-04-16T04:15:38.806Z,30.15
2023-04-16T04:18:06.372Z,33.30
2023-04-16T04:20:34.001Z,32.47
2023-04-16T04:23:03.341Z,31.52
2023-04-16T04:25:31.398Z,31.95
2023-04-16T04:28:01.073Z,33.90
2023-04-16T04:30:29.752Z,34.00
2023-04-16T04:32:57.446Z,30.85
2023-04-16T04:35:25.146Z,32.80
2023-04-16T04:37:53.725Z,32.75
2023-04-16T04:40:21.993Z,33.28
2023-04-16T04:42:49.803Z,35.40
2023-04-16T04:45:19.143Z,33.60
2023-04-16T04:47:46.802Z,32.63
2023-04-16T04:50:14.948Z,32.53
2023-04-16T04:52:42.692Z,31.98
2023-04-16T04:55:10.558Z,31.77
2023-04-16T04:57:38.265Z,33.35
2023-04-16T05:00:09.269Z,32.90
2023-04-16T05:02:47.350Z,31.15
2023-04-16T05:05:15.155Z,31.65
2023-04-16T05:07:42.793Z,32.75
2023-04-16T05:10:10.803Z,33.50
2023-04-16T05:12:39.923Z,31.85
2023-04-16T05:15:08.560Z,31.58
2023-04-16T05:17:36.368Z,31.23
2023-04-16T05:20:06.088Z,30.90
2023-04-16T05:22:34.003Z,33.53
2023-04-16T05:25:01.562Z,31.23
2023-04-16T05:27:29.132Z,30.00
2023-04-16T05:29:56.791Z,30.27
2023-04-16T05:32:26.796Z,31.83
2023-04-16T05:34:54.467Z,29.85
2023-04-16T05:37:23.435Z,32.95
2023-04-16T05:39:51.100Z,30.85
2023-04-16T05:42:18.796Z,30.73
2023-04-16T05:44:46.398Z,32.42
2023-04-16T05:47:14.002Z,31.60
2023-04-16T05:49:41.571Z,31.80
2023-04-16T05:52:09.192Z,31.65
2023-04-16T05:54:38.093Z,33.00
2023-04-16T05:57:05.688Z,31.42
2023-04-16T05:59:34.383Z,31.05
2023-04-16T06:02:02.074Z,31.60
2023-04-16T06:04:30.905Z,34.30
2023-04-16T06:06:58.474Z,31.85
2023-04-16T06:09:26.061Z,31.13
2023-04-16T06:11:55.373Z,31.55
2023-04-16T06:14:23.012Z,34.58
2023-04-16T06:16:50.990Z,36.17
2023-04-16T06:19:18.584Z,35.30
2023-04-16T06:21:46.377Z,34.35
2023-04-16T06:24:14.054Z,33.55
2023-04-16T06:26:41.601Z,35.33
2023-04-16T06:29:10.686Z,35.40
2023-04-16T06:31:38.649Z,34.80
2023-04-16T06:34:06.214Z,32.47
2023-04-16T06:36:33.792Z,33.28
2023-04-16T06:39:01.367Z,33.35
2023-04-16T06:41:29.008Z,36.20
2023-04-16T06:43:57.671Z,34.50
2023-04-16T06:46:26.636Z,34.70
2023-04-16T06:48:54.303Z,33.95
2023-04-16T06:51:21.929Z,35.22
2023-04-16T06:53:49.824Z,35.95
2023-04-16T06:56:17.418Z,34.33
2023-04-16T06:58:45.018Z,33.75
2023-04-16T07:01:12.732Z,34.53
2023-04-16T07:03:41.874Z,33.78
2023-04-16T07:06:09.699Z,31.80
2023-04-16T07:08:37.277Z,34.08
2023-04-16T07:11:04.942Z,33.42
2023-04-16T07:13:32.507Z,32.13
2023-04-16T07:16:00.442Z,33.38
2023-04-16T07:18:28.030Z,34.42
2023-04-16T07:20:56.950Z,31.05
2023-04-16T07:23:24.778Z,32.45
2023-04-16T07:25:52.341Z,31.02
2023-04-16T07:28:20.289Z,30.67
2023-04-16T07:30:47.903Z,30.10
2023-04-16T07:33:15.491Z,29.90
2023-04-16T07:35:43.078Z,29.90
2023-04-16T07:38:11.991Z,31.83
2023-04-16T07:40:39.603Z,32.77
2023-04-16T07:43:07.647Z,31.52
2023-04-16T07:45:35.295Z,32.13
2023-04-16T07:48:03.034Z,30.42
2023-04-16T07:50:30.730Z,32.30
2023-04-16T07:52:58.285Z,30.02
2023-04-16T07:55:27.200Z,30.27
2023-04-16T07:57:56.163Z,31.65
2023-04-16T08:00:23.861Z,32.03
2023-04-16T08:02:51.612Z,30.83
2023-04-16T08:05:19.517Z,31.17
2023-04-16T08:07:47.144Z,29.40
2023-04-16T08:10:14.731Z,30.20
2023-04-16T08:12:43.715Z,27.88
2023-04-16T08:15:11.864Z,28.83
2023-04-16T08:17:39.521Z,29.17
2023-04-16T08:20:08.363Z,28.10
2023-04-16T08:22:36.589Z,29.67
2023-04-16T08:25:04.454Z,29.40
2023-04-16T08:27:32.018Z,28.67
2023-04-16T08:30:00.973Z,30.40
2023-04-16T08:32:28.677Z,28.40
2023-04-16T08:34:56.288Z,29.10
2023-04-16T08:37:23.866Z,28.02
2023-04-16T08:39:51.476Z,27.50
2023-04-16T08:42:24.490Z,24.43
2023-04-16T08:44:59.914Z,27.60
2023-04-16T08:47:32.075Z,26.73
2023-04-16T08:50:00.181Z,24.87
2023-04-16T08:52:31.163Z,26.33
2023-04-16T08:55:05.936Z,25.73
2023-04-16T08:57:41.097Z,24.37
2023-04-16T09:00:09.896Z,24.50
2023-04-16T09:02:39.211Z,25.73
2023-04-16T09:05:08.766Z,24.23
2023-04-16T09:07:37.370Z,23.53
2023-04-16T09:10:07.054Z,24.93
2023-04-16T09:12:36.390Z,24.53
2023-04-16T09:15:04.981Z,22.47
2023-04-16T09:17:32.676Z,24.50
2023-04-16T09:20:01.688Z,24.67
2023-04-16T09:22:29.329Z,25.57
2023-04-16T09:24:56.901Z,24.50
2023-04-16T09:27:26.264Z,24.87
2023-04-16T09:29:54.056Z,24.53
2023-04-16T09:32:28.088Z,24.73
2023-04-16T09:34:57.523Z,23.80
2023-04-16T09:37:29.443Z,22.63
2023-04-16T09:39:58.718Z,25.00
2023-04-16T09:42:28.290Z,23.93
2023-04-16T09:44:59.418Z,24.37
2023-04-16T09:47:40.089Z,26.30
2023-04-16T09:50:08.495Z,26.33
2023-04-16T09:52:38.984Z,24.03
2023-04-16T09:55:07.485Z,23.80
2023-04-16T09:57:38.687Z,24.53
2023-04-16T10:00:08.926Z,24.53
2023-04-16T10:02:38.981Z,23.67
2023-04-16T10:05:07.686Z,20.80
2023-04-16T10:07:36.541Z,25.00
2023-04-16T10:10:06.450Z,21.17
2023-04-16T10:12:34.056Z,22.87
2023-04-16T10:15:01.724Z,23.70
2023-04-16T10:17:30.332Z,23.30
2023-04-16T10:19:59.147Z,22.90
2023-04-16T10:22:27.066Z,23.47
2023-04-16T10:24:55.569Z,24.60
2023-04-16T10:27:25.209Z,22.70
2023-04-16T10:29:53.362Z,24.17
2023-04-16T10:32:21.769Z,23.53
2023-04-16T10:34:49.700Z,26.73
2023-04-16T10:37:18.801Z,23.23
2023-04-16T10:39:46.488Z,24.03
2023-04-16T10:42:14.248Z,24.23
2023-04-16T10:44:45.501Z,23.10
2023-04-16T10:47:14.619Z,23.97
2023-04-16T10:49:43.519Z,21.30
2023-04-16T10:52:13.130Z,20.60
2023-04-16T10:54:41.573Z,20.20
2023-04-16T10:57:10.359Z,22.10
2023-04-16T10:59:39.760Z,21.30
2023-04-16T11:02:12.908Z,21.90
2023-04-16T11:04:43.346Z,21.17
2023-04-16T11:07:20.360Z,18.93
2023-04-16T11:09:53.392Z,19.90
2023-04-16T11:12:22.383Z,18.47
2023-04-16T11:14:51.389Z,17.83
2023-04-16T11:17:21.033Z,16.07
2023-04-16T11:19:49.310Z,20.67
2023-04-16T11:22:18.479Z,20.43
2023-04-16T11:24:47.013Z,20.00
2023-04-16T11:27:15.382Z,19.60
2023-04-16T11:29:44.997Z,18.90
2023-04-16T11:32:22.933Z,17.80
2023-04-16T11:34:50.610Z,15.23
2023-04-16T11:37:21.626Z,16.73
2023-04-16T11:39:53.098Z,17.30
2023-04-16T11:42:22.554Z,17.60
2023-04-16T11:44:55.104Z,17.93
2023-04-16T11:47:25.586Z,18.90
2023-04-16T11:49:53.706Z,19.70
2023-04-16T11:52:28.959Z,18.20
2023-04-16T11:54:56.853Z,19.20
2023-04-16T11:57:29.010Z,18.37
2023-04-16T12:00:01.906Z,19.33
2023-04-16T12:02:42.727Z,18.90
2023-04-16T12:05:28.726Z,17.60
2023-04-16T12:07:56.554Z,18.43
2023-04-16T12:10:24.416Z,18.70
2023-04-16T12:12:52.065Z,20.30
2023-04-16T12:15:19.783Z,19.63
2023-04-16T12:17:50.429Z,19.43
2023-04-16T12:20:18.124Z,20.87
2023-04-16T12:22:46.806Z,20.93
2023-04-16T12:25:16.841Z,21.50
2023-04-16T12:27:46.766Z,20.27
2023-04-16T12:30:15.348Z,21.63
2023-04-16T12:32:44.139Z,20.50
2023-04-16T12:35:13.423Z,19.23
2023-04-16T12:37:41.393Z,20.83
2023-04-16T12:40:09.669Z,19.57
2023-04-16T12:42:37.428Z,19.20
2023-04-16T12:45:06.846Z,18.60
2023-04-16T12:47:34.612Z,19.07
2023-04-16T12:50:02.337Z,18.40
2023-04-16T12:52:31.357Z,18.23
2023-04-16T12:54:58.969Z,18.33
2023-04-16T12:57:28.626Z,19.07
2023-04-16T12:59:57.142Z,20.13
2023-04-16T13:02:25.393Z,18.53
2023-04-16T13:04:53.655Z,18.63
2023-04-16T13:07:21.675Z,19.43
2023-04-16T13:09:50.665Z,19.87
2023-04-16T13:12:18.252Z,18.17
2023-04-16T13:14:45.937Z,17.63
2023-04-16T13:17:13.485Z,16.10
2023-04-16T13:19:41.049Z,17.70
2023-04-16T13:22:09.325Z,18.70
2023-04-16T13:24:37.347Z,17.47
2023-04-16T13:27:08.313Z,16.80
2023-04-16T13:29:36.879Z,17.07
2023-04-16T13:32:04.932Z,17.20
2023-04-16T13:34:32.596Z,14.73
2023-04-16T13:37:00.149Z,16.00
2023-04-16T13:39:27.727Z,16.40
2023-04-16T13:41:55.300Z,16.87
2023-04-16T13:44:24.233Z,14.80
2023-04-16T13:46:51.850Z,15.47
2023-04-16T13:49:20.157Z,17.03
2023-04-16T13:51:47.793Z,17.27
2023-04-16T13:54:15.411Z,17.53
2023-04-16T13:56:43.097Z,18.50
2023-04-16T13:59:11.274Z,17.83
2023-04-16T14:01:41.166Z,16.27
2023-04-16T14:04:08.834Z,18.13
2023-04-16T14:06:36.447Z,19.40
2023-04-16T14:09:04.732Z,18.47
2023-04-16T14:11:32.443Z,19.60
2023-04-16T14:14:00.025Z,21.10
2023-04-16T14:16:28.590Z,19.80
2023-04-16T14:18:58.346Z,18.83
2023-04-16T14:21:27.243Z,21.53
2023-04-16T14:23:54.945Z,19.67
2023-04-16T14:26:22.628Z,20.40
2023-04-16T14:28:51.675Z,19.87
2023-04-16T14:31:19.965Z,19.23
2023-04-16T14:33:47.662Z,19.20
2023-04-16T14:36:17.006Z,18.27
2023-04-16T14:38:44.711Z,18.23
2023-04-16T14:41:13.563Z,17.53
2023-04-16T14:43:41.292Z,18.60
2023-04-16T14:46:09.072Z,14.47
2023-04-16T14:48:36.742Z,17.43
2023-04-16T14:51:04.354Z,16.83
2023-04-16T14:53:34.356Z,17.03
2023-04-16T14:56:01.970Z,16.30
2023-04-16T14:58:29.560Z,15.13
2023-04-16T15:00:57.196Z,17.17
2023-04-16T15:03:25.574Z,15.43
2023-04-16T15:05:55.820Z,17.60
2023-04-16T15:08:23.667Z,17.20
2023-04-16T15:10:52.743Z,17.57
2023-04-16T15:13:20.463Z,16.30
2023-04-16T15:15:48.509Z,16.23
2023-04-16T15:18:16.440Z,16.63
2023-04-16T15:20:44.051Z,14.20
2023-04-16T15:23:11.620Z,14.60
2023-04-16T15:25:39.184Z,13.40
2023-04-16T15:28:08.092Z,12.23
2023-04-16T15:30:35.851Z,14.40
2023-04-16T15:33:03.556Z,13.23
2023-04-16T15:35:31.221Z,12.37
2023-04-16T15:37:58.891Z,13.37
2023-04-16T15:40:26.514Z,11.57
2023-04-16T15:42:56.287Z,11.47
2023-04-16T15:45:25.260Z,12.60
2023-04-16T15:47:52.870Z,11.93
2023-04-16T15:50:21.063Z,11.77
2023-04-16T15:52:48.791Z,12.20
2023-04-16T15:55:18.274Z,12.80
2023-04-16T15:57:46.333Z,13.00
2023-04-16T16:00:16.920Z,14.23
2023-04-16T16:02:47.601Z,13.80
2023-04-16T16:05:16.059Z,12.17
2023-04-16T16:07:44.424Z,12.60
2023-04-16T16:10:13.023Z,13.83
2023-04-16T16:12:41.283Z,13.27
2023-04-16T16:15:10.867Z,12.57
2023-04-16T16:17:38.544Z,13.40
2023-04-16T16:20:10.330Z,14.47
2023-04-16T16:22:39.053Z,13.60
2023-04-16T16:25:07.973Z,13.13
2023-04-16T16:27:36.046Z,13.20
2023-04-16T16:30:06.476Z,12.20
2023-04-16T16:32:34.152Z,13.27
2023-04-16T16:35:01.855Z,11.07
2023-04-16T16:37:30.838Z,12.40
2023-04-16T16:39:58.406Z,12.10
2023-04-16T16:42:26.441Z,11.93
2023-04-16T16:44:56.665Z,10.90
2023-04-16T16:47:25.339Z,10.93
2023-04-16T16:49:54.581Z,12.47
2023-04-16T16:52:23.728Z,11.63
2023-04-16T16:54:54.357Z,11.57
2023-04-16T16:57:21.944Z,10.73
2023-04-16T16:59:50.379Z,10.70
2023-04-16T17:02:18.122Z,11.27
2023-04-16T17:04:45.817Z,11.30
2023-04-16T17:07:13.531Z,11.00
2023-04-16T17:09:41.226Z,10.97
2023-04-16T17:12:10.500Z,13.07
2023-04-16T17:14:38.143Z,12.80
2023-04-16T17:17:05.748Z,12.20
2023-04-16T17:19:33.331Z,12.87
2023-04-16T17:22:00.952Z,11.83
2023-04-16T17:24:28.536Z,12.97
2023-04-16T17:26:56.301Z,12.67
2023-04-16T17:29:26.185Z,12.43
2023-04-16T17:31:54.129Z,13.23
2023-04-16T17:34:21.948Z,13.50
2023-04-16T17:36:50.453Z,14.00
2023-04-16T17:39:18.147Z,13.10
2023-04-16T17:41:46.085Z,14.40
2023-04-16T17:44:13.966Z,13.23
2023-04-16T17:46:43.197Z,13.37
2023-04-16T17:49:12.413Z,12.30
2023-04-16T17:51:40.978Z,12.70
2023-04-16T17:54:08.705Z,12.90
2023-04-16T17:56:36.857Z,17.33
2023-04-16T17:59:04.409Z,18.53
2023-04-16T18:01:32.227Z,19.13
2023-04-16T18:04:01.465Z,19.87
2023-04-16T18:06:29.218Z,20.90
2023-04-16T18:08:56.786Z,21.20
2023-04-16T18:11:24.444Z,20.87
2023-04-16T18:13:53.482Z,21.93
2023-04-16T18:16:22.307Z,23.80
2023-04-16T18:18:50.047Z,19.93
2023-04-16T18:21:19.176Z,20.60
2023-04-16T18:23:46.741Z,20.33
2023-04-16T18:26:17.826Z,21.20
2023-04-16T18:28:47.898Z,22.73
2023-04-16T18:31:15.948Z,23.60
2023-04-16T18:33:56.737Z,22.33
2023-04-16T18:36:27.172Z,23.13
2023-04-16T18:39:01.644Z,23.07
2023-04-16T18:41:30.674Z,21.80
2023-04-16T18:43:58.529Z,22.93
2023-04-16T18:46:26.731Z,24.97
2023-04-16T18:48:54.474Z,23.23
2023-04-16T18:51:22.069Z,22.50
2023-04-16T18:53:51.257Z,23.00
2023-04-16T18:56:19.345Z,23.30
2023-04-16T18:58:47.718Z,25.23
2023-04-16T19:01:16.462Z,21.77
2023-04-16T19:03:44.272Z,22.37
2023-04-16T19:06:11.894Z,22.53
2023-04-16T19:08:39.454Z,23.40
2023-04-16T19:11:08.442Z,23.73
2023-04-16T19:13:36.441Z,23.93
2023-04-16T19:16:05.986Z,22.87
2023-04-16T19:18:33.546Z,21.30
2023-04-16T19:21:01.415Z,20.30
2023-04-16T19:23:29.650Z,21.50
2023-04-16T19:25:57.684Z,22.23
2023-04-16T19:28:27.203Z,22.10
2023-04-16T19:30:55.072Z,19.70
2023-04-16T19:33:22.671Z,21.60
2023-04-16T19:35:50.367Z,20.20
2023-04-16T19:38:17.995Z,20.30
2023-04-16T19:40:47.220Z,19.20
2023-04-16T19:43:15.286Z,20.13
2023-04-16T19:45:52.198Z,20.37
2023-04-16T19:48:20.289Z,21.00
2023-04-16T19:50:48.338Z,18.70
2023-04-16T19:53:16.961Z,20.30
2023-04-16T19:55:44.559Z,19.70
2023-04-16T19:58:12.142Z,20.50
2023-04-16T20:00:41.033Z,22.37
2023-04-16T20:03:10.419Z,19.57
2023-04-16T20:05:38.142Z,18.97
2023-04-16T20:08:06.309Z,18.83
2023-04-16T20:10:33.964Z,19.83
2023-04-16T20:13:01.612Z,19.30
2023-04-16T20:15:29.236Z,19.07
2023-04-16T20:17:56.949Z,20.77
2023-04-16T20:20:25.926Z,20.80
2023-04-16T20:22:53.528Z,19.57
2023-04-16T20:25:21.484Z,20.47
2023-04-16T20:27:49.074Z,20.23
2023-04-16T20:30:16.706Z,20.03
2023-04-16T20:32:44.377Z,20.03
2023-04-16T20:35:12.254Z,20.60
2023-04-16T20:37:42.912Z,20.33
2023-04-16T20:40:11.263Z,18.33
2023-04-16T20:42:40.741Z,17.50
2023-04-16T20:45:11.068Z,18.63
2023-04-16T20:47:38.702Z,18.37
2023-04-16T20:50:07.370Z,18.23
2023-04-16T20:52:34.990Z,18.17
2023-04-16T20:55:03.964Z,18.07
2023-04-16T20:57:31.984Z,18.57
2023-04-16T20:59:59.627Z,18.37
2023-04-16T21:02:28.060Z,18.50
2023-04-16T21:04:56.050Z,19.40
2023-04-16T21:07:23.630Z,17.77
2023-04-16T21:09:51.176Z,19.90
2023-04-16T21:12:20.141Z,18.97
2023-04-16T21:14:47.726Z,20.03
2023-04-16T21:17:15.287Z,23.10
2023-04-16T21:19:42.912Z,20.27
2023-04-16T21:22:10.510Z,21.83
2023-04-16T21:24:38.092Z,21.53
2023-04-16T21:27:05.834Z,21.30
2023-04-16T21:29:34.855Z,22.37
2023-04-16T21:32:02.443Z,21.70
2023-04-16T21:34:30.034Z,23.83
2023-04-16T21:36:57.607Z,23.83
2023-04-16T21:39:30.148Z,24.50
2023-04-16T21:41:57.985Z,23.43
2023-04-16T21:44:25.649Z,22.40
2023-04-16T21:46:54.614Z,22.60
2023-04-16T21:49:22.296Z,22.20
2023-04-16T21:51:50.091Z,22.97
2023-04-16T21:54:20.064Z,22.53
2023-04-16T21:56:47.662Z,25.57
2023-04-16T21:59:15.283Z,25.03
2023-04-16T22:01:42.995Z,27.17
2023-04-16T22:04:12.161Z,27.20
2023-04-16T22:06:40.486Z,27.57
2023-04-16T22:09:09.407Z,28.50
2023-04-16T22:11:38.221Z,28.60
2023-04-16T22:14:08.079Z,28.43
2023-04-16T22:16:35.771Z,28.43
2023-04-16T22:19:03.396Z,29.70
2023-04-16T22:21:32.374Z,28.33
2023-04-16T22:23:59.971Z,28.77
2023-04-16T22:26:27.582Z,29.43
2023-04-16T22:28:55.171Z,30.13
2023-04-16T22:31:22.977Z,29.00
2023-04-16T22:33:50.638Z,30.70
2023-04-16T22:36:18.229Z,28.33
2023-04-16T22:38:47.452Z,32.40
2023-04-16T22:41:15.334Z,32.87
2023-04-16T22:43:43.000Z,30.93
2023-04-16T22:46:10.645Z,29.73
2023-04-16T22:48:39.016Z,31.20
2023-04-16T22:51:08.791Z,33.50
2023-04-16T22:53:36.685Z,32.13
2023-04-16T22:56:06.073Z,33.57
2023-04-16T22:58:33.643Z,33.33
2023-04-16T23:01:01.640Z,31.90
2023-04-16T23:03:29.527Z,31.67
2023-04-16T23:05:57.174Z,30.40
2023-04-16T23:08:24.884Z,30.40
2023-04-16T23:10:52.494Z,32.97
2023-04-16T23:13:21.417Z,33.27
2023-04-16T23:15:48.999Z,33.03
2023-04-16T23:18:16.782Z,31.63
2023-04-16T23:20:44.357Z,34.80
2023-04-16T23:23:11.944Z,33.57
2023-04-16T23:25:42.127Z,31.20
2023-04-16T23:28:09.681Z,33.77
2023-04-16T23:30:38.610Z,35.57
2023-04-16T23:33:06.609Z,33.97
2023-04-16T23:35:34.274Z,34.07
2023-04-16T23:38:01.872Z,32.57
2023-04-16T23:40:29.443Z,35.60
2023-04-16T23:42:57.011Z,33.30
2023-04-16T23:45:24.639Z,37.60
2023-04-16T23:47:53.716Z,35.27
2023-04-16T23:50:21.296Z,33.40
2023-04-16T23:52:48.839Z,35.93
2023-04-16T23:55:16.529Z,35.10
2023-04-16T23:57:44.089Z,35.33
